PAL453 RPLL-RPMR
Flight info
| Callsign | PAL453 |
|---|---|
| Flight time | N/A |
| Altitude | 39000 |
| Route | RPLL/06 N0478F390 VERD2R VERDE A461 SAJ W3 IOO B472 COT W19 MELBY MELB3R RPMR/17 |
| Aircraft | B77W/H-SIL/0000 |
Departure
| Time | 2026-04-30 10:56 |
|---|---|
| Airport | Ninoy Aquino International Airport (RPLL) |
Arrival
| Time | N/A |
|---|---|
| Airport | General Santos International Airport (RPMR) |
| Time | Latitude | Longitude | Altitude | Speed | Heading |
|---|---|---|---|---|---|
| 2026-04-30 10:34 | 14.51060 | 121.01416 | 88 ft | 0 kts | 232° |
| 2026-04-30 10:46 | 14.51068 | 121.01427 | 87 ft | 2 kts | 232° |
| 2026-04-30 10:46 | 14.51077 | 121.01440 | 87 ft | 1 kts | 232° |
| 2026-04-30 10:46 | 14.51084 | 121.01447 | 87 ft | 2 kts | 217° |
| 2026-04-30 10:47 | 14.51098 | 121.01451 | 87 ft | 2 kts | 161° |
| 2026-04-30 10:47 | 14.51107 | 121.01445 | 88 ft | 1 kts | 131° |
| 2026-04-30 10:47 | 14.51110 | 121.01442 | 88 ft | 0 kts | 133° |
| 2026-04-30 10:49 | 14.51098 | 121.01454 | 88 ft | 8 kts | 135° |
| 2026-04-30 10:49 | 14.51041 | 121.01512 | 88 ft | 11 kts | 135° |
| 2026-04-30 10:49 | 14.50984 | 121.01569 | 88 ft | 11 kts | 135° |
| 2026-04-30 10:50 | 14.50934 | 121.01627 | 88 ft | 10 kts | 131° |
| 2026-04-30 10:50 | 14.50883 | 121.01656 | 88 ft | 7 kts | 195° |
| 2026-04-30 10:50 | 14.50844 | 121.01627 | 88 ft | 7 kts | 233° |
| 2026-04-30 10:50 | 14.50754 | 121.01475 | 88 ft | 7 kts | 240° |
| 2026-04-30 10:51 | 14.50642 | 121.01271 | 88 ft | 15 kts | 241° |
| 2026-04-30 10:51 | 14.50568 | 121.01133 | 88 ft | 25 kts | 241° |
| 2026-04-30 10:51 | 14.50490 | 121.00993 | 88 ft | 17 kts | 239° |
| 2026-04-30 10:51 | 14.50430 | 121.00887 | 88 ft | 16 kts | 240° |
| 2026-04-30 10:52 | 14.50374 | 121.00787 | 88 ft | 15 kts | 240° |
| 2026-04-30 10:52 | 14.50322 | 121.00692 | 88 ft | 14 kts | 240° |
| 2026-04-30 10:52 | 14.50273 | 121.00603 | 88 ft | 13 kts | 240° |
| 2026-04-30 10:52 | 14.50227 | 121.00518 | 88 ft | 13 kts | 240° |
| 2026-04-30 10:53 | 14.50182 | 121.00436 | 88 ft | 12 kts | 240° |
| 2026-04-30 10:53 | 14.50141 | 121.00359 | 88 ft | 12 kts | 241° |
| 2026-04-30 10:53 | 14.50100 | 121.00285 | 88 ft | 11 kts | 241° |
| 2026-04-30 10:53 | 14.50060 | 121.00214 | 88 ft | 11 kts | 239° |
| 2026-04-30 10:54 | 14.50020 | 121.00146 | 88 ft | 10 kts | 239° |
| 2026-04-30 10:54 | 14.49981 | 121.00079 | 88 ft | 10 kts | 239° |
| 2026-04-30 10:54 | 14.49944 | 121.00016 | 88 ft | 10 kts | 239° |
| 2026-04-30 10:54 | 14.49897 | 120.99970 | 88 ft | 9 kts | 192° |
| 2026-04-30 10:55 | 14.49843 | 120.99985 | 88 ft | 8 kts | 153° |
| 2026-04-30 10:55 | 14.49809 | 121.00025 | 89 ft | 6 kts | 107° |
| 2026-04-30 10:55 | 14.49819 | 121.00070 | 89 ft | 9 kts | 66° |
| 2026-04-30 10:55 | 14.49893 | 121.00209 | 89 ft | 53 kts | 60° |
| 2026-04-30 10:56 | 14.50261 | 121.00870 | 89 ft | 154 kts | 60° |
| 2026-04-30 10:56 | 14.50873 | 121.01975 | 699 ft | 193 kts | 60° |
| 2026-04-30 10:56 | 14.51516 | 121.03084 | 2136 ft | 180 kts | 60° |
| 2026-04-30 10:56 | 14.52131 | 121.04216 | 2894 ft | 190 kts | 61° |
| 2026-04-30 10:57 | 14.52797 | 121.05437 | 3552 ft | 203 kts | 60° |
| 2026-04-30 10:57 | 14.53529 | 121.06759 | 4221 ft | 221 kts | 60° |
| 2026-04-30 10:57 | 14.54308 | 121.08163 | 4974 ft | 236 kts | 60° |
| 2026-04-30 10:57 | 14.55152 | 121.09684 | 5767 ft | 252 kts | 60° |
| 2026-04-30 10:58 | 14.55947 | 121.11336 | 6585 ft | 265 kts | 73° |
| 2026-04-30 10:58 | 14.56110 | 121.13214 | 7561 ft | 271 kts | 97° |
| 2026-04-30 10:58 | 14.55481 | 121.15063 | 8518 ft | 280 kts | 121° |
| 2026-04-30 10:58 | 14.54166 | 121.16555 | 9463 ft | 289 kts | 142° |
| 2026-04-30 10:59 | 14.52351 | 121.17402 | 10394 ft | 299 kts | 166° |
| 2026-04-30 10:59 | 14.50258 | 121.17442 | 11347 ft | 306 kts | 184° |
| 2026-04-30 10:59 | 14.48129 | 121.17162 | 12366 ft | 308 kts | 185° |
| 2026-04-30 10:59 | 14.46007 | 121.16859 | 13300 ft | 313 kts | 185° |
| 2026-04-30 11:00 | 14.43818 | 121.16545 | 14219 ft | 317 kts | 186° |
| 2026-04-30 11:00 | 14.41624 | 121.16231 | 15179 ft | 320 kts | 186° |
| 2026-04-30 11:00 | 14.39410 | 121.15913 | 16096 ft | 323 kts | 186° |
| 2026-04-30 11:00 | 14.37171 | 121.15592 | 16974 ft | 328 kts | 186° |
| 2026-04-30 11:01 | 14.34882 | 121.15264 | 17815 ft | 332 kts | 186° |
| 2026-04-30 11:01 | 14.32603 | 121.14938 | 18679 ft | 334 kts | 186° |
| 2026-04-30 11:01 | 14.30287 | 121.14606 | 19525 ft | 337 kts | 186° |
| 2026-04-30 11:01 | 14.27955 | 121.14271 | 20304 ft | 341 kts | 186° |
| 2026-04-30 11:02 | 14.25556 | 121.13927 | 21112 ft | 345 kts | 186° |
| 2026-04-30 11:02 | 14.23161 | 121.13584 | 21870 ft | 348 kts | 186° |
| 2026-04-30 11:02 | 14.20731 | 121.13236 | 22567 ft | 353 kts | 187° |
| 2026-04-30 11:02 | 14.18333 | 121.12893 | 23260 ft | 357 kts | 187° |
| 2026-04-30 11:03 | 14.15877 | 121.12541 | 23994 ft | 360 kts | 187° |
| 2026-04-30 11:03 | 14.13356 | 121.12180 | 24705 ft | 365 kts | 188° |
| 2026-04-30 11:03 | 14.10820 | 121.11816 | 25422 ft | 368 kts | 188° |
| 2026-04-30 11:04 | 14.05671 | 121.11079 | 26811 ft | 375 kts | 188° |
| 2026-04-30 11:04 | 14.03072 | 121.10707 | 27453 ft | 379 kts | 188° |
| 2026-04-30 11:04 | 14.00422 | 121.10327 | 28096 ft | 383 kts | 189° |
| 2026-04-30 11:04 | 13.97748 | 121.09945 | 28741 ft | 386 kts | 189° |
| 2026-04-30 11:05 | 13.95067 | 121.09560 | 29379 ft | 389 kts | 189° |
| 2026-04-30 11:05 | 13.92322 | 121.09168 | 30035 ft | 391 kts | 189° |
| 2026-04-30 11:05 | 13.89607 | 121.08779 | 30614 ft | 391 kts | 189° |
| 2026-04-30 11:05 | 13.86887 | 121.08391 | 31076 ft | 394 kts | 189° |
| 2026-04-30 11:06 | 13.84137 | 121.07997 | 31515 ft | 397 kts | 189° |
| 2026-04-30 11:06 | 13.81350 | 121.07598 | 31958 ft | 398 kts | 188° |
| 2026-04-30 11:06 | 13.78567 | 121.07203 | 32417 ft | 404 kts | 188° |
| 2026-04-30 11:06 | 13.75792 | 121.06810 | 33091 ft | 404 kts | 188° |
| 2026-04-30 11:07 | 13.72980 | 121.06412 | 33746 ft | 406 kts | 188° |
| 2026-04-30 11:07 | 13.70127 | 121.06007 | 34167 ft | 412 kts | 188° |
| 2026-04-30 11:07 | 13.67257 | 121.05600 | 34563 ft | 418 kts | 188° |
| 2026-04-30 11:07 | 13.64343 | 121.05185 | 35045 ft | 421 kts | 188° |
| 2026-04-30 11:08 | 13.61437 | 121.04771 | 35512 ft | 424 kts | 188° |
| 2026-04-30 11:08 | 13.58454 | 121.04346 | 35952 ft | 428 kts | 188° |
| 2026-04-30 11:08 | 13.55464 | 121.03918 | 36359 ft | 432 kts | 188° |
| 2026-04-30 11:08 | 13.52434 | 121.03481 | 36725 ft | 436 kts | 188° |
| 2026-04-30 11:09 | 13.49339 | 121.03205 | 37102 ft | 441 kts | 181° |
| 2026-04-30 11:09 | 13.46260 | 121.03213 | 37496 ft | 444 kts | 180° |
| 2026-04-30 11:09 | 13.43103 | 121.03249 | 37855 ft | 447 kts | 180° |
| 2026-04-30 11:09 | 13.40006 | 121.03284 | 38179 ft | 450 kts | 180° |
| 2026-04-30 11:10 | 13.36804 | 121.03318 | 38514 ft | 454 kts | 180° |
| 2026-04-30 11:10 | 13.33649 | 121.03352 | 38875 ft | 456 kts | 180° |
| 2026-04-30 11:10 | 13.30421 | 121.03385 | 39139 ft | 458 kts | 180° |
| 2026-04-30 11:11 | 13.24012 | 121.03451 | 39194 ft | 461 kts | 180° |
| 2026-04-30 11:11 | 13.17525 | 121.03516 | 39173 ft | 460 kts | 180° |
| 2026-04-30 11:12 | 13.11061 | 121.03581 | 39141 ft | 460 kts | 180° |
| 2026-04-30 11:12 | 13.04649 | 121.03645 | 39113 ft | 461 kts | 180° |
| 2026-04-30 11:13 | 12.98184 | 121.03709 | 39087 ft | 461 kts | 180° |
| 2026-04-30 11:13 | 12.91724 | 121.03773 | 39080 ft | 460 kts | 180° |
| 2026-04-30 11:14 | 12.85437 | 121.03835 | 39059 ft | 461 kts | 180° |
| 2026-04-30 11:14 | 12.80424 | 121.03884 | 39035 ft | 447 kts | 179° |
| 2026-04-30 11:14 | 12.77340 | 121.03915 | 39022 ft | 433 kts | 179° |
| 2026-04-30 11:15 | 12.74360 | 121.03944 | 39021 ft | 427 kts | 180° |
| 2026-04-30 11:15 | 12.68319 | 121.04002 | 39013 ft | 431 kts | 179° |
| 2026-04-30 11:16 | 12.62255 | 121.04062 | 38989 ft | 430 kts | 179° |
| 2026-04-30 11:16 | 12.56226 | 121.04121 | 38979 ft | 431 kts | 179° |
| 2026-04-30 11:17 | 12.50192 | 121.04181 | 38959 ft | 429 kts | 179° |
| 2026-04-30 11:17 | 12.44141 | 121.04240 | 38950 ft | 430 kts | 179° |
| 2026-04-30 11:18 | 12.38189 | 121.05084 | 38955 ft | 431 kts | 162° |
| 2026-04-30 11:18 | 12.32784 | 121.07795 | 38957 ft | 432 kts | 144° |
| 2026-04-30 11:18 | 12.30434 | 121.09777 | 38956 ft | 432 kts | 137° |
| 2026-04-30 11:19 | 12.25987 | 121.13979 | 38943 ft | 432 kts | 137° |
| 2026-04-30 11:19 | 12.21574 | 121.18180 | 38941 ft | 432 kts | 137° |
| 2026-04-30 11:20 | 12.17140 | 121.22411 | 38940 ft | 432 kts | 137° |
| 2026-04-30 11:20 | 12.12790 | 121.26562 | 38933 ft | 431 kts | 137° |
| 2026-04-30 11:21 | 12.08466 | 121.30691 | 38926 ft | 432 kts | 136° |
| 2026-04-30 11:21 | 12.04008 | 121.34946 | 38922 ft | 431 kts | 136° |
| 2026-04-30 11:22 | 11.99673 | 121.39083 | 38910 ft | 431 kts | 136° |
| 2026-04-30 11:22 | 11.95284 | 121.43269 | 38910 ft | 431 kts | 136° |
| 2026-04-30 11:23 | 11.90866 | 121.47481 | 38910 ft | 431 kts | 136° |
| 2026-04-30 11:24 | 11.84414 | 121.53629 | 38914 ft | 430 kts | 136° |
| 2026-04-30 11:24 | 11.80120 | 121.57719 | 38912 ft | 430 kts | 136° |
| 2026-04-30 11:25 | 11.73550 | 121.63972 | 38909 ft | 429 kts | 136° |
| 2026-04-30 11:26 | 11.65113 | 121.71996 | 38913 ft | 429 kts | 136° |
| 2026-04-30 11:26 | 11.63224 | 121.73792 | 38908 ft | 429 kts | 136° |
| 2026-04-30 11:27 | 11.58939 | 121.77863 | 38909 ft | 429 kts | 136° |
| 2026-04-30 11:27 | 11.54573 | 121.82010 | 38909 ft | 429 kts | 136° |
| 2026-04-30 11:28 | 11.48077 | 121.88176 | 38909 ft | 429 kts | 136° |
| 2026-04-30 11:29 | 11.43783 | 121.92252 | 38908 ft | 428 kts | 136° |
| 2026-04-30 11:29 | 11.37198 | 121.98498 | 38907 ft | 428 kts | 136° |
| 2026-04-30 11:30 | 11.30691 | 122.04666 | 38919 ft | 427 kts | 136° |
| 2026-04-30 11:31 | 11.26312 | 122.08814 | 38934 ft | 428 kts | 136° |
| 2026-04-30 11:31 | 11.21931 | 122.12963 | 38949 ft | 427 kts | 136° |
| 2026-04-30 11:32 | 11.17522 | 122.17136 | 38967 ft | 427 kts | 136° |
| 2026-04-30 11:32 | 11.13142 | 122.21281 | 38986 ft | 427 kts | 136° |
| 2026-04-30 11:33 | 11.06603 | 122.27464 | 39008 ft | 427 kts | 136° |
| 2026-04-30 11:33 | 11.02225 | 122.31599 | 38998 ft | 426 kts | 136° |
| 2026-04-30 11:34 | 10.97819 | 122.35757 | 38979 ft | 427 kts | 136° |
| 2026-04-30 11:34 | 10.93459 | 122.39871 | 38960 ft | 426 kts | 136° |
| 2026-04-30 11:35 | 10.89248 | 122.43842 | 38942 ft | 426 kts | 136° |
| 2026-04-30 11:35 | 10.85028 | 122.47787 | 38923 ft | 427 kts | 140° |
| 2026-04-30 11:36 | 10.80533 | 122.50664 | 38908 ft | 426 kts | 154° |
| 2026-04-30 11:36 | 10.75134 | 122.53219 | 38922 ft | 427 kts | 154° |
| 2026-04-30 11:37 | 10.69726 | 122.55769 | 38920 ft | 426 kts | 154° |
| 2026-04-30 11:37 | 10.64372 | 122.58298 | 38923 ft | 426 kts | 154° |
| 2026-04-30 11:38 | 10.59045 | 122.60815 | 38920 ft | 426 kts | 154° |